createdAt,value
2022-11-02T00:00:01.192Z,97629.75
2022-11-02T00:02:30.767Z,97626.13
2022-11-02T00:04:58.998Z,97623.63
2022-11-02T00:07:27.064Z,97628.75
2022-11-02T00:09:55.205Z,97627.63
2022-11-02T00:12:23.306Z,97634.72
2022-11-02T00:14:51.458Z,97637.50
2022-11-02T00:17:19.579Z,97637.50
2022-11-02T00:19:49.503Z,97637.69
2022-11-02T00:22:17.828Z,97641.47
2022-11-02T00:24:46.598Z,97647.44
2022-11-02T00:27:14.747Z,97651.91
2022-11-02T00:29:43.061Z,97656.34
2022-11-02T00:32:11.170Z,97651.44
2022-11-02T00:34:39.399Z,97659.19
2022-11-02T00:37:08.939Z,97656.38
2022-11-02T00:39:37.321Z,97653.88
2022-11-02T00:42:05.746Z,97662.66
2022-11-02T00:44:33.801Z,97659.34
2022-11-02T00:47:01.979Z,97659.03
2022-11-02T00:49:30.088Z,97652.09
2022-11-02T00:51:58.358Z,97655.72
2022-11-02T00:54:28.667Z,97655.22
2022-11-02T00:56:56.994Z,97660.16
2022-11-02T00:59:25.118Z,97658.38
2022-11-02T01:01:53.424Z,97654.72
2022-11-02T01:04:21.617Z,97658.66
2022-11-02T01:06:49.760Z,97659.34
2022-11-02T01:09:18.162Z,97663.81
2022-11-02T01:11:47.717Z,97662.31
2022-11-02T01:14:15.862Z,97663.81
2022-11-02T01:19:17.778Z,97655.22
2022-11-02T01:21:45.898Z,97650.06
2022-11-02T01:24:14.158Z,97641.00
2022-11-02T01:26:42.320Z,97645.44
2022-11-02T01:29:11.858Z,97646.75
2022-11-02T01:31:40.039Z,97652.38
2022-11-02T01:34:08.531Z,97632.22
2022-11-02T01:36:36.678Z,97650.59
2022-11-02T01:39:05.398Z,97644.78
2022-11-02T01:41:33.578Z,97638.34
2022-11-02T01:44:04.240Z,97632.56
2022-11-02T01:46:39.118Z,97635.19
2022-11-02T01:49:14.207Z,97639.50
2022-11-02T01:51:44.958Z,97637.19
2022-11-02T01:54:15.538Z,97632.06
2022-11-02T01:56:45.829Z,97639.16
2022-11-02T01:59:17.188Z,97648.41
2022-11-02T02:01:47.848Z,97641.81
2022-11-02T02:04:16.641Z,97640.16
2022-11-02T02:06:45.598Z,97625.28
2022-11-02T02:09:14.908Z,97627.25
2022-11-02T02:11:43.038Z,97636.56
2022-11-02T02:14:13.242Z,97640.16
2022-11-02T02:16:58.954Z,97637.88
2022-11-02T02:19:37.677Z,97635.38
2022-11-02T02:22:18.250Z,97640.66
2022-11-02T02:24:51.038Z,97636.53
2022-11-02T02:27:23.159Z,97641.00
2022-11-02T02:30:05.169Z,97641.16
2022-11-02T02:32:39.966Z,97648.59
2022-11-02T02:35:14.818Z,97651.91
2022-11-02T02:37:48.687Z,97654.69
2022-11-02T02:40:20.046Z,97653.88
2022-11-02T02:42:51.538Z,97657.84
2022-11-02T02:45:24.150Z,97652.56
2022-11-02T02:47:57.369Z,97654.03
2022-11-02T02:50:28.298Z,97656.53
2022-11-02T02:52:56.776Z,97665.13
2022-11-02T02:55:29.518Z,97663.63
2022-11-02T02:57:58.470Z,97661.50
2022-11-02T03:00:28.106Z,97650.56
2022-11-02T03:03:02.075Z,97658.84
2022-11-02T03:05:32.437Z,97654.84
2022-11-02T03:08:05.251Z,97656.81
2022-11-02T03:10:36.627Z,97649.41
2022-11-02T03:13:24.897Z,97651.69
2022-11-02T03:15:59.904Z,97653.84
2022-11-02T03:18:35.836Z,97651.38
2022-11-02T03:21:08.818Z,97655.34
2022-11-02T03:23:40.101Z,97659.44
2022-11-02T03:26:11.369Z,97656.31
2022-11-02T03:28:46.441Z,97653.16
2022-11-02T03:31:20.598Z,97650.84
2022-11-02T03:33:55.728Z,97666.50
2022-11-02T03:36:26.984Z,97663.19
2022-11-02T03:38:58.202Z,97665.47
2022-11-02T03:41:26.999Z,97669.44
2022-11-02T03:43:57.271Z,97674.84
2022-11-02T03:46:27.311Z,97675.03
2022-11-02T03:48:56.389Z,97677.16
2022-11-02T03:51:25.382Z,97670.72
2022-11-02T03:54:00.140Z,97671.22
2022-11-02T03:56:33.512Z,97670.09
2022-11-02T03:59:02.221Z,97674.53
2022-11-02T04:01:33.341Z,97680.59
2022-11-02T04:04:02.902Z,97677.28
2022-11-02T04:06:31.625Z,97666.03
2022-11-02T04:08:59.983Z,97668.38
2022-11-02T04:11:46.270Z,97674.38
2022-11-02T04:14:32.071Z,97667.50
2022-11-02T04:17:19.205Z,97667.66
2022-11-02T04:19:49.853Z,97681.47
2022-11-02T04:22:36.005Z,97683.88
2022-11-02T04:25:22.797Z,97686.84
2022-11-02T04:27:52.416Z,97697.09
2022-11-02T04:30:22.728Z,97686.38
2022-11-02T04:33:09.838Z,97692.16
2022-11-02T04:35:38.681Z,97695.31
2022-11-02T04:38:24.443Z,97694.47
2022-11-02T04:41:13.316Z,97705.25
2022-11-02T04:43:41.473Z,97697.13
2022-11-02T04:46:09.686Z,97703.69
2022-11-02T04:48:39.176Z,97702.88
2022-11-02T04:51:07.703Z,97689.84
2022-11-02T04:53:36.418Z,97698.59
2022-11-02T04:56:04.661Z,97693.16
2022-11-02T04:58:32.933Z,97693.81
2022-11-02T05:01:06.277Z,97687.38
2022-11-02T05:03:34.492Z,97695.66
2022-11-02T05:06:04.463Z,97690.72
2022-11-02T05:08:32.722Z,97696.63
2022-11-02T05:11:01.386Z,97703.03
2022-11-02T05:13:29.884Z,97704.34
2022-11-02T05:15:58.323Z,97699.22
2022-11-02T05:18:27.195Z,97693.63
2022-11-02T05:20:56.902Z,97702.38
2022-11-02T05:23:26.592Z,97689.34
2022-11-02T05:25:55.358Z,97691.31
2022-11-02T05:28:24.012Z,97700.22
2022-11-02T05:30:52.322Z,97690.56
2022-11-02T05:33:20.571Z,97698.78
2022-11-02T05:35:49.076Z,97711.69
2022-11-02T05:38:17.382Z,97716.13
2022-11-02T05:40:53.224Z,97721.19
2022-11-02T05:43:21.896Z,97718.56
2022-11-02T05:45:54.681Z,97723.06
2022-11-02T05:48:23.394Z,97725.34
2022-11-02T05:50:51.726Z,97731.44
2022-11-02T05:53:19.822Z,97731.94
2022-11-02T05:55:49.461Z,97729.44
2022-11-02T05:58:17.616Z,97738.25
2022-11-02T06:00:45.832Z,97744.91
2022-11-02T06:03:13.954Z,97749.50
2022-11-02T06:05:42.410Z,97743.31
2022-11-02T06:08:10.614Z,97736.91
2022-11-02T06:10:38.883Z,97745.34
2022-11-02T06:13:08.443Z,97758.22
2022-11-02T06:15:36.803Z,97762.38
2022-11-02T06:18:05.134Z,97760.56
2022-11-02T06:20:33.303Z,97758.53
2022-11-02T06:23:01.771Z,97754.84
2022-11-02T06:25:30.381Z,97752.06
2022-11-02T06:27:58.841Z,97758.78
2022-11-02T06:30:28.482Z,97770.81
2022-11-02T06:32:56.588Z,97766.81
2022-11-02T06:35:25.154Z,97755.69
2022-11-02T06:37:53.241Z,97763.81
2022-11-02T06:40:24.176Z,97762.69
2022-11-02T06:43:15.484Z,97774.97
2022-11-02T06:45:46.948Z,97777.16
2022-11-02T06:48:15.167Z,97778.63
2022-11-02T06:50:43.408Z,97780.91
2022-11-02T06:53:11.603Z,97784.22
2022-11-02T06:55:39.764Z,97794.47
2022-11-02T06:58:08.017Z,97797.41
2022-11-02T07:00:36.600Z,97795.78
2022-11-02T07:03:08.098Z,97808.78
2022-11-02T07:05:36.803Z,97803.22
2022-11-02T07:08:06.368Z,97802.31
2022-11-02T07:10:35.665Z,97810.38
2022-11-02T07:13:04.305Z,97816.38
2022-11-02T07:15:32.627Z,97820.13
2022-11-02T07:18:00.821Z,97818.16
2022-11-02T07:20:30.700Z,97822.53
2022-11-02T07:23:00.128Z,97824.34
2022-11-02T07:25:31.205Z,97827.19
2022-11-02T07:28:00.444Z,97824.56
2022-11-02T07:30:28.761Z,97817.19
2022-11-02T07:32:56.991Z,97814.41
2022-11-02T07:35:25.522Z,97820.06
2022-11-02T07:37:59.084Z,97819.81
2022-11-02T07:40:28.413Z,97816.19
2022-11-02T07:42:56.997Z,97822.75
2022-11-02T07:45:25.575Z,97829.75
2022-11-02T07:47:53.820Z,97828.31
2022-11-02T07:50:23.537Z,97822.69
2022-11-02T07:52:53.055Z,97829.97
2022-11-02T07:55:24.163Z,97828.22
2022-11-02T07:57:55.733Z,97835.91
2022-11-02T08:00:23.961Z,97832.59
2022-11-02T08:02:56.134Z,97830.00
2022-11-02T08:05:24.323Z,97841.09
2022-11-02T08:07:58.486Z,97830.00
2022-11-02T08:10:29.034Z,97837.53
2022-11-02T08:12:57.604Z,97833.94
2022-11-02T08:15:26.073Z,97845.53
2022-11-02T08:18:02.407Z,97849.16
2022-11-02T08:20:31.126Z,97850.38
2022-11-02T08:22:59.673Z,97851.53
2022-11-02T08:25:29.287Z,97847.56
2022-11-02T08:27:58.673Z,97845.97
2022-11-02T08:30:27.026Z,97842.63
2022-11-02T08:32:57.358Z,97845.81
2022-11-02T08:35:25.782Z,97836.34
2022-11-02T08:37:56.983Z,97826.06
2022-11-02T08:40:25.429Z,97816.28
2022-11-02T08:42:58.727Z,97802.63
2022-11-02T08:45:26.924Z,97813.22
2022-11-02T08:47:55.647Z,97809.97
2022-11-02T08:50:24.988Z,97806.50
2022-11-02T08:52:53.463Z,97814.03
2022-11-02T08:55:21.963Z,97818.97
2022-11-02T08:57:51.083Z,97813.84
2022-11-02T09:00:22.352Z,97811.38
2022-11-02T09:03:00.921Z,97818.47
2022-11-02T09:05:29.724Z,97813.19
2022-11-02T09:07:59.327Z,97817.66
2022-11-02T09:10:28.586Z,97815.81
2022-11-02T09:12:57.404Z,97808.38
2022-11-02T09:15:27.325Z,97813.88
2022-11-02T09:17:55.505Z,97805.06
2022-11-02T09:20:24.023Z,97794.28
2022-11-02T09:22:52.142Z,97796.22
2022-11-02T09:25:20.601Z,97795.84
2022-11-02T09:27:55.542Z,97791.56
2022-11-02T09:30:24.801Z,97798.13
2022-11-02T09:32:58.177Z,97793.34
2022-11-02T09:35:27.172Z,97798.19
2022-11-02T09:37:55.304Z,97802.59
2022-11-02T09:40:24.856Z,97796.25
2022-11-02T09:43:01.934Z,97799.34
2022-11-02T09:45:31.050Z,97800.25
2022-11-02T09:48:17.677Z,97798.47
2022-11-02T09:50:51.173Z,97801.81
2022-11-02T09:53:23.002Z,97801.19
2022-11-02T09:55:53.683Z,97798.56
2022-11-02T09:58:25.358Z,97790.75
2022-11-02T10:01:01.616Z,97793.34
2022-11-02T10:03:37.486Z,97795.31
2022-11-02T10:06:09.883Z,97788.97
2022-11-02T10:08:44.016Z,97771.16
2022-11-02T10:11:24.729Z,97788.28
2022-11-02T10:13:56.930Z,97792.16
2022-11-02T10:16:27.983Z,97787.41
2022-11-02T10:18:57.504Z,97791.44
2022-11-02T10:21:29.061Z,97778.47
2022-11-02T10:23:57.914Z,97777.72
2022-11-02T10:26:29.642Z,97771.00
2022-11-02T10:29:00.273Z,97771.78
2022-11-02T10:31:31.333Z,97761.66
2022-11-02T10:34:06.975Z,97771.16
2022-11-02T10:36:43.165Z,97768.03
2022-11-02T10:39:21.535Z,97775.16
2022-11-02T10:42:03.895Z,97777.66
2022-11-02T10:44:42.746Z,97778.06
2022-11-02T10:47:15.790Z,97777.34
2022-11-02T10:50:17.572Z,97789.09
2022-11-02T10:52:47.454Z,97793.94
2022-11-02T10:55:23.032Z,97799.38
2022-11-02T10:57:52.053Z,97804.53
2022-11-02T11:00:29.193Z,97811.44
2022-11-02T11:03:08.481Z,97796.13
2022-11-02T11:05:40.461Z,97806.66
2022-11-02T11:08:21.844Z,97812.19
2022-11-02T11:10:49.981Z,97809.59
2022-11-02T11:16:14.715Z,97798.00
2022-11-02T11:21:42.143Z,97796.63
2022-11-02T11:24:21.772Z,97801.69
2022-11-02T11:27:05.544Z,97798.69
2022-11-02T11:29:34.703Z,97798.44
2022-11-02T11:32:17.053Z,97799.22
2022-11-02T11:34:48.265Z,97793.47
2022-11-02T11:37:18.334Z,97789.00
2022-11-02T11:39:52.397Z,97796.81
2022-11-02T11:42:24.552Z,97789.78
2022-11-02T11:44:58.443Z,97772.81
2022-11-02T11:47:31.854Z,97774.09
2022-11-02T11:50:10.359Z,97772.78
2022-11-02T11:52:44.108Z,97779.63
2022-11-02T11:55:24.197Z,97773.50
2022-11-02T11:58:08.881Z,97766.00
2022-11-02T12:00:37.221Z,97766.34
2022-11-02T12:03:08.003Z,97768.06
2022-11-02T12:05:44.357Z,97767.13
2022-11-02T12:08:39.173Z,97766.56
2022-11-02T12:11:19.482Z,97758.44
2022-11-02T12:13:58.517Z,97758.41
2022-11-02T12:16:34.897Z,97749.53
2022-11-02T12:19:20.296Z,97752.09
2022-11-02T12:21:59.942Z,97752.06
2022-11-02T12:25:15.535Z,97747.34
2022-11-02T12:27:52.222Z,97747.88
2022-11-02T12:30:21.534Z,97750.06
2022-11-02T12:33:10.997Z,97755.00
2022-11-02T12:35:51.200Z,97751.31
2022-11-02T12:38:47.267Z,97749.44
2022-11-02T12:41:18.836Z,97750.25
2022-11-02T12:43:49.591Z,97751.81
2022-11-02T12:46:35.415Z,97753.38
2022-11-02T12:49:19.663Z,97750.59
2022-11-02T12:51:54.184Z,97755.16
2022-11-02T12:54:23.303Z,97748.56
2022-11-02T12:56:53.339Z,97745.53
2022-11-02T12:59:25.211Z,97752.56
2022-11-02T13:01:57.294Z,97750.97
2022-11-02T13:04:30.133Z,97755.44
2022-11-02T13:07:04.026Z,97758.94
2022-11-02T13:09:34.716Z,97756.00
2022-11-02T13:12:06.053Z,97754.69
2022-11-02T13:14:41.149Z,97750.69
2022-11-02T13:17:15.922Z,97751.13
2022-11-02T13:19:46.777Z,97759.81
2022-11-02T13:22:15.285Z,97756.78
2022-11-02T13:24:47.071Z,97748.16
2022-11-02T13:27:36.473Z,97750.81
2022-11-02T13:30:11.567Z,97739.72
2022-11-02T13:32:43.757Z,97750.13
2022-11-02T13:35:17.203Z,97749.81
2022-11-02T13:37:48.246Z,97743.19
2022-11-02T13:40:25.613Z,97740.13
2022-11-02T13:43:14.944Z,97738.28
2022-11-02T13:45:59.960Z,97736.75
2022-11-02T13:48:40.957Z,97735.47
2022-11-02T13:51:25.933Z,97731.94
2022-11-02T13:53:57.423Z,97735.59
2022-11-02T13:56:27.560Z,97728.34
2022-11-02T13:58:58.210Z,97711.66
2022-11-02T14:01:28.786Z,97727.31
2022-11-02T14:04:01.924Z,97723.44
2022-11-02T14:06:32.316Z,97721.84
2022-11-02T14:09:02.624Z,97712.84
2022-11-02T14:11:38.767Z,97721.03
2022-11-02T14:14:23.455Z,97716.78
2022-11-02T14:17:17.622Z,97705.75
2022-11-02T14:20:04.833Z,97707.84
2022-11-02T14:22:33.670Z,97706.59
2022-11-02T14:25:25.892Z,97717.66
2022-11-02T14:27:55.733Z,97715.28
2022-11-02T14:30:46.603Z,97704.03
2022-11-02T14:33:26.041Z,97720.34
2022-11-02T14:35:59.534Z,97717.16
2022-11-02T14:38:59.276Z,97719.19
2022-11-02T14:41:44.769Z,97714.50
2022-11-02T14:44:27.742Z,97717.56
2022-11-02T14:46:57.818Z,97718.66
2022-11-02T14:49:29.264Z,97708.41
2022-11-02T14:52:04.330Z,97699.78
2022-11-02T14:54:34.651Z,97694.03
2022-11-02T14:57:05.365Z,97703.97
2022-11-02T14:59:35.273Z,97720.19
2022-11-02T15:02:05.991Z,97723.97
2022-11-02T15:04:36.273Z,97709.53
2022-11-02T15:07:06.250Z,97716.06
2022-11-02T15:09:55.452Z,97728.28
2022-11-02T15:12:48.186Z,97719.56
2022-11-02T15:15:37.842Z,97719.00
2022-11-02T15:18:23.805Z,97721.25
2022-11-02T15:21:25.014Z,97734.53
2022-11-02T15:24:02.889Z,97734.47
2022-11-02T15:26:40.675Z,97732.41
2022-11-02T15:29:17.643Z,97741.66
2022-11-02T15:31:52.461Z,97732.97
2022-11-02T15:34:20.953Z,97737.78
2022-11-02T15:36:52.473Z,97734.47
2022-11-02T15:39:20.683Z,97729.56
2022-11-02T15:41:54.274Z,97735.59
2022-11-02T15:44:50.346Z,97729.66
2022-11-02T15:47:25.890Z,97737.81
2022-11-02T15:50:35.923Z,97757.81
2022-11-02T15:53:34.677Z,97746.94
2022-11-02T15:56:15.883Z,97748.94
2022-11-02T15:59:00.133Z,97754.59
2022-11-02T16:01:29.154Z,97750.47
2022-11-02T16:03:59.659Z,97754.13
2022-11-02T16:06:29.004Z,97741.19
2022-11-02T16:08:59.060Z,97760.38
2022-11-02T16:11:27.702Z,97771.09
2022-11-02T16:14:16.655Z,97770.38
2022-11-02T16:16:48.255Z,97767.88
2022-11-02T16:19:20.194Z,97755.13
2022-11-02T16:21:48.906Z,97748.41
2022-11-02T16:24:18.903Z,97755.59
2022-11-02T16:26:48.185Z,97760.25
2022-11-02T16:29:23.996Z,97764.09
2022-11-02T16:31:53.342Z,97772.28
2022-11-02T16:34:23.653Z,97775.78
2022-11-02T16:36:51.882Z,97774.25
2022-11-02T16:39:23.564Z,97787.41
2022-11-02T16:41:55.845Z,97779.22
2022-11-02T16:44:26.659Z,97781.44
2022-11-02T16:46:57.384Z,97781.13
2022-11-02T16:49:27.174Z,97780.19
2022-11-02T16:51:56.568Z,97788.47
2022-11-02T16:54:31.923Z,97788.84
2022-11-02T16:57:07.194Z,97774.66
2022-11-02T16:59:40.164Z,97786.34
2022-11-02T17:02:12.588Z,97791.38
2022-11-02T17:04:43.514Z,97792.56
2022-11-02T17:07:14.772Z,97795.97
2022-11-02T17:09:44.423Z,97796.44
2022-11-02T17:12:15.985Z,97785.25
2022-11-02T17:14:45.421Z,97783.22
2022-11-02T17:17:30.143Z,97786.38
2022-11-02T17:20:09.967Z,97788.22
2022-11-02T17:22:40.656Z,97790.59
2022-11-02T17:25:22.689Z,97796.31
2022-11-02T17:27:51.496Z,97800.66
2022-11-02T17:30:46.865Z,97802.31
2022-11-02T17:33:26.341Z,97796.94
2022-11-02T17:35:56.384Z,97797.91
2022-11-02T17:38:27.191Z,97811.22
2022-11-02T17:40:56.937Z,97801.78
2022-11-02T17:43:24.343Z,97802.66
2022-11-02T17:45:57.406Z,97802.50
2022-11-02T17:48:25.973Z,97809.28
2022-11-02T17:50:55.502Z,97812.78
2022-11-02T17:53:24.553Z,97809.53
2022-11-02T17:55:53.905Z,97816.22
2022-11-02T17:58:23.481Z,97818.69
2022-11-02T18:00:54.043Z,97813.97
2022-11-02T18:03:25.504Z,97810.94
2022-11-02T18:05:59.777Z,97815.78
2022-11-02T18:08:28.518Z,97806.91
2022-11-02T18:10:57.525Z,97799.72
2022-11-02T18:13:27.173Z,97802.63
2022-11-02T18:15:55.353Z,97800.69
2022-11-02T18:18:23.602Z,97794.03
2022-11-02T18:20:51.775Z,97801.91
2022-11-02T18:23:20.732Z,97782.25
2022-11-02T18:25:50.948Z,97796.19
2022-11-02T18:28:22.076Z,97761.91
2022-11-02T18:30:51.878Z,97786.53
2022-11-02T18:33:20.393Z,97780.72
2022-11-02T18:35:48.588Z,97780.19
2022-11-02T18:38:16.784Z,97768.81
2022-11-02T18:40:44.991Z,97776.00
2022-11-02T18:43:13.395Z,97774.88
2022-11-02T18:45:41.563Z,97783.03
2022-11-02T18:48:11.191Z,97777.09
2022-11-02T18:50:39.377Z,97776.50
2022-11-02T18:53:07.551Z,97771.00
2022-11-02T18:55:36.031Z,97768.53
2022-11-02T18:58:04.735Z,97775.31
2022-11-02T19:00:33.103Z,97781.28
2022-11-02T19:03:02.160Z,97784.56
2022-11-02T19:05:49.196Z,97776.28
2022-11-02T19:08:34.896Z,97758.13
2022-11-02T19:11:03.176Z,97760.06
2022-11-02T19:13:31.373Z,97766.28
2022-11-02T19:16:00.464Z,97767.13
2022-11-02T19:18:28.606Z,97763.50
2022-11-02T19:20:58.170Z,97763.06
2022-11-02T19:23:26.283Z,97769.13
2022-11-02T19:25:54.444Z,97759.84
2022-11-02T19:28:22.681Z,97759.97
2022-11-02T19:30:50.863Z,97758.97
2022-11-02T19:33:18.994Z,97759.81
2022-11-02T19:35:57.365Z,97753.59
2022-11-02T19:38:25.492Z,97755.38
2022-11-02T19:41:02.368Z,97749.88
2022-11-02T19:43:30.575Z,97755.09
2022-11-02T19:46:02.400Z,97756.19
2022-11-02T19:48:31.545Z,97757.19
2022-11-02T19:51:08.032Z,97748.47
2022-11-02T19:53:36.436Z,97756.34
2022-11-02T19:56:04.740Z,97750.94
2022-11-02T19:58:33.400Z,97756.13
2022-11-02T20:01:07.416Z,97756.81
2022-11-02T20:03:35.885Z,97754.69
2022-11-02T20:06:04.956Z,97761.47
2022-11-02T20:08:34.722Z,97743.19
2022-11-02T20:11:03.960Z,97748.56
2022-11-02T20:13:34.063Z,97756.56
2022-11-02T20:16:02.461Z,97753.16
2022-11-02T20:18:30.755Z,97742.94
2022-11-02T20:21:04.289Z,97742.97
2022-11-02T20:23:33.183Z,97750.81
2022-11-02T20:26:04.890Z,97751.00
2022-11-02T20:28:33.152Z,97755.22
2022-11-02T20:31:01.254Z,97750.59
2022-11-02T20:33:29.465Z,97746.13
2022-11-02T20:35:58.122Z,97732.94
2022-11-02T20:38:26.783Z,97737.44
2022-11-02T20:40:54.906Z,97731.06
2022-11-02T20:43:24.545Z,97740.00
2022-11-02T20:48:51.722Z,97740.78
2022-11-02T20:51:21.484Z,97733.34
2022-11-02T20:53:50.270Z,97730.91
2022-11-02T20:56:19.242Z,97727.09
2022-11-02T20:58:55.486Z,97735.00
2022-11-02T21:01:24.643Z,97739.09
2022-11-02T21:03:52.893Z,97738.66
2022-11-02T21:06:21.062Z,97731.75
2022-11-02T21:08:49.207Z,97727.22
2022-11-02T21:11:34.785Z,97736.41
2022-11-02T21:14:04.413Z,97733.34
2022-11-02T21:16:32.686Z,97729.16
2022-11-02T21:19:00.883Z,97732.63
2022-11-02T21:21:29.303Z,97716.31
2022-11-02T21:23:57.523Z,97732.19
2022-11-02T21:26:25.695Z,97732.75
2022-11-02T21:28:53.835Z,97730.56
2022-11-02T21:31:24.052Z,97732.47
2022-11-02T21:33:52.198Z,97736.13
2022-11-02T21:36:20.472Z,97733.75
2022-11-02T21:38:48.782Z,97739.19
2022-11-02T21:41:19.713Z,97736.03
2022-11-02T21:43:48.002Z,97744.28
2022-11-02T21:46:16.312Z,97739.88
2022-11-02T21:48:45.888Z,97742.00
2022-11-02T21:51:16.463Z,97736.06
2022-11-02T21:53:45.664Z,97731.44
2022-11-02T21:56:17.347Z,97722.63
2022-11-02T21:58:46.620Z,97722.28
2022-11-02T22:01:34.440Z,97724.44
2022-11-02T22:04:04.754Z,97736.81
2022-11-02T22:06:33.214Z,97733.94
2022-11-02T22:09:01.656Z,97724.78
2022-11-02T22:11:31.817Z,97738.38
2022-11-02T22:14:00.987Z,97737.41
2022-11-02T22:16:31.880Z,97732.22
2022-11-02T22:19:01.569Z,97731.97
2022-11-02T22:21:32.927Z,97726.63
2022-11-02T22:24:01.081Z,97734.34
2022-11-02T22:26:30.863Z,97725.34
2022-11-02T22:29:01.010Z,97729.25
2022-11-02T22:31:30.727Z,97728.06
2022-11-02T22:34:00.446Z,97724.63
2022-11-02T22:36:31.046Z,97721.16
2022-11-02T22:38:59.582Z,97716.56
2022-11-02T22:41:29.685Z,97715.72
2022-11-02T22:43:59.404Z,97712.28
2022-11-02T22:46:28.714Z,97711.41
2022-11-02T22:48:58.203Z,97711.91
2022-11-02T22:51:27.923Z,97700.25
2022-11-02T22:53:57.763Z,97689.44
2022-11-02T22:56:25.992Z,97702.28
2022-11-02T22:58:54.113Z,97702.28
2022-11-02T23:01:24.482Z,97701.09
2022-11-02T23:03:53.013Z,97708.22
2022-11-02T23:06:22.456Z,97702.50
2022-11-02T23:08:52.004Z,97700.50
2022-11-02T23:11:22.023Z,97699.19
2022-11-02T23:13:52.162Z,97693.47
2022-11-02T23:16:24.250Z,97692.03
2022-11-02T23:19:22.046Z,97685.59
2022-11-02T23:22:08.876Z,97682.47
2022-11-02T23:24:54.731Z,97685.69
2022-11-02T23:27:24.563Z,97679.06
2022-11-02T23:30:10.465Z,97683.94
2022-11-02T23:32:39.573Z,97668.63
2022-11-02T23:35:25.524Z,97667.44
2022-11-02T23:38:03.465Z,97659.84
2022-11-02T23:40:32.047Z,97659.69
2022-11-02T23:43:01.644Z,97660.31
2022-11-02T23:45:29.836Z,97657.22
2022-11-02T23:48:01.563Z,97647.59
2022-11-02T23:50:49.536Z,97659.97
2022-11-02T23:53:37.304Z,97654.25
2022-11-02T23:56:23.793Z,97655.94
2022-11-02T23:59:06.683Z,97650.91
